createdAt,value
2018-11-04T00:01:36.009Z,41.02
2018-11-04T00:04:04.244Z,44.90
2018-11-04T00:06:32.466Z,40.80
2018-11-04T00:09:00.749Z,40.45
2018-11-04T00:11:28.956Z,41.90
2018-11-04T00:13:57.190Z,42.17
2018-11-04T00:16:25.423Z,43.58
2018-11-04T00:18:53.646Z,39.10
2018-11-04T00:21:21.873Z,39.75
2018-11-04T00:23:50.168Z,39.50
2018-11-04T00:26:18.377Z,45.08
2018-11-04T00:28:46.580Z,43.33
2018-11-04T00:31:14.833Z,41.50
2018-11-04T00:33:43.041Z,44.60
2018-11-04T00:36:11.290Z,37.75
2018-11-04T00:38:39.507Z,41.58
2018-11-04T00:41:07.771Z,41.65
2018-11-04T00:43:36.129Z,47.58
2018-11-04T00:46:04.358Z,37.13
2018-11-04T00:48:32.637Z,37.95
2018-11-04T00:51:00.813Z,38.63
2018-11-04T00:53:29.063Z,37.83
2018-11-04T00:55:57.315Z,43.45
2018-11-04T00:58:26.358Z,44.77
2018-11-04T01:00:54.941Z,39.23
2018-11-04T01:03:23.183Z,38.95
2018-11-04T01:05:51.404Z,42.13
2018-11-04T01:08:19.677Z,39.83
2018-11-04T01:10:48.006Z,38.75
2018-11-04T01:13:16.258Z,37.78
2018-11-04T01:15:44.457Z,41.20
2018-11-04T01:18:12.670Z,39.83
2018-11-04T01:20:40.953Z,41.10
2018-11-04T01:23:09.203Z,41.28
2018-11-04T01:25:37.589Z,41.80
2018-11-04T01:28:06.126Z,41.10
2018-11-04T01:30:34.358Z,41.88
2018-11-04T01:33:02.677Z,42.15
2018-11-04T01:35:30.935Z,41.95
2018-11-04T01:37:59.151Z,37.90
2018-11-04T01:40:27.378Z,37.75
2018-11-04T01:42:55.650Z,36.85
2018-11-04T01:45:23.913Z,43.10
2018-11-04T01:47:52.205Z,39.13
2018-11-04T01:50:20.491Z,38.63
2018-11-04T01:52:48.766Z,38.95
2018-11-04T01:55:16.985Z,38.53
2018-11-04T01:57:45.327Z,41.40
2018-11-04T02:00:14.602Z,33.80
2018-11-04T02:02:43.582Z,38.48
2018-11-04T02:05:12.662Z,49.65
2018-11-04T02:07:40.917Z,42.80
2018-11-04T02:10:11.098Z,36.98
2018-11-04T02:12:39.437Z,38.67
2018-11-04T02:15:09.266Z,38.28
2018-11-04T02:17:37.621Z,33.42
2018-11-04T02:20:07.012Z,35.23
2018-11-04T02:22:35.282Z,37.58
2018-11-04T02:25:03.499Z,40.40
2018-11-04T02:27:31.808Z,36.93
2018-11-04T02:30:00.054Z,33.90
2018-11-04T02:32:28.269Z,37.28
2018-11-04T02:34:56.538Z,38.38
2018-11-04T02:37:24.765Z,35.33
2018-11-04T02:39:53.034Z,33.55
2018-11-04T02:42:21.229Z,33.55
2018-11-04T02:44:49.572Z,35.13
2018-11-04T02:47:17.795Z,33.42
2018-11-04T02:49:46.023Z,34.10
2018-11-04T02:52:14.286Z,37.93
2018-11-04T02:54:42.490Z,35.70
2018-11-04T02:57:10.762Z,33.78
2018-11-04T02:59:38.972Z,38.60
2018-11-04T03:02:07.520Z,30.40
2018-11-04T03:04:35.714Z,30.25
2018-11-04T03:07:03.957Z,30.85
2018-11-04T03:09:32.146Z,37.17
2018-11-04T03:12:00.425Z,34.95
2018-11-04T03:14:28.691Z,32.98
2018-11-04T03:16:57.014Z,31.27
2018-11-04T03:19:25.232Z,32.25
2018-11-04T03:21:53.533Z,34.58
2018-11-04T03:24:21.765Z,31.77
2018-11-04T03:26:50.034Z,32.50
2018-11-04T03:29:18.298Z,30.32
2018-11-04T03:31:46.511Z,30.32
2018-11-04T03:34:14.832Z,31.23
2018-11-04T03:36:43.072Z,38.00
2018-11-04T03:39:11.787Z,28.83
2018-11-04T03:41:40.637Z,32.80
2018-11-04T03:44:08.873Z,27.70
2018-11-04T03:46:37.499Z,33.40
2018-11-04T03:49:06.546Z,32.35
2018-11-04T03:51:35.050Z,33.40
2018-11-04T03:54:03.365Z,28.95
2018-11-04T03:56:31.600Z,30.45
2018-11-04T03:58:59.894Z,30.55
2018-11-04T04:01:28.140Z,31.40
2018-11-04T04:03:56.429Z,33.28
2018-11-04T04:06:24.910Z,32.58
2018-11-04T04:08:53.115Z,32.98
2018-11-04T04:11:21.370Z,31.62
2018-11-04T04:13:49.638Z,28.38
2018-11-04T04:16:17.893Z,32.95
2018-11-04T04:18:46.116Z,28.02
2018-11-04T04:21:14.355Z,27.95
2018-11-04T04:23:42.736Z,28.20
2018-11-04T04:26:11.947Z,31.77
2018-11-04T04:28:40.668Z,28.77
2018-11-04T04:31:08.995Z,30.12
2018-11-04T04:33:37.211Z,28.90
2018-11-04T04:36:05.743Z,29.25
2018-11-04T04:38:33.953Z,29.27
2018-11-04T04:41:02.231Z,31.07
2018-11-04T04:43:30.481Z,31.23
2018-11-04T04:45:58.705Z,32.60
2018-11-04T04:48:26.970Z,28.47
2018-11-04T04:50:55.248Z,26.35
2018-11-04T04:53:24.668Z,26.68
2018-11-04T04:55:54.230Z,30.43
2018-11-04T04:58:22.710Z,30.35
2018-11-04T05:00:51.256Z,31.27
2018-11-04T05:03:19.473Z,32.35
2018-11-04T05:05:47.713Z,31.45
2018-11-04T05:08:15.984Z,25.85
2018-11-04T05:10:44.331Z,28.57
2018-11-04T05:13:12.647Z,27.20
2018-11-04T05:15:40.876Z,28.90
2018-11-04T05:18:09.210Z,26.50
2018-11-04T05:20:37.562Z,29.07
2018-11-04T05:23:05.929Z,31.60
2018-11-04T05:25:34.282Z,30.43
2018-11-04T05:28:02.524Z,29.30
2018-11-04T05:30:30.911Z,30.97
2018-11-04T05:32:59.119Z,30.82
2018-11-04T05:35:27.390Z,28.25
2018-11-04T05:37:55.661Z,27.98
2018-11-04T05:40:23.859Z,29.45
2018-11-04T05:42:52.228Z,27.37
2018-11-04T05:45:20.462Z,29.30
2018-11-04T05:47:48.737Z,28.12
2018-11-04T05:50:17.026Z,31.62
2018-11-04T05:52:45.316Z,29.90
2018-11-04T05:55:13.635Z,27.80
2018-11-04T05:57:41.865Z,35.08
2018-11-04T06:00:10.930Z,28.40
2018-11-04T06:02:39.151Z,33.70
2018-11-04T06:05:08.484Z,31.73
2018-11-04T06:07:36.744Z,33.75
2018-11-04T06:10:05.703Z,30.48
2018-11-04T06:12:33.952Z,30.25
2018-11-04T06:15:02.266Z,30.62
2018-11-04T06:17:30.617Z,32.17
2018-11-04T06:19:58.883Z,34.38
2018-11-04T06:22:27.151Z,32.73
2018-11-04T06:24:55.365Z,35.08
2018-11-04T06:27:23.589Z,31.70
2018-11-04T06:29:51.817Z,33.75
2018-11-04T06:32:20.165Z,32.42
2018-11-04T06:34:48.533Z,32.35
2018-11-04T06:37:16.836Z,32.48
2018-11-04T06:39:45.066Z,30.10
2018-11-04T06:42:13.342Z,36.98
2018-11-04T06:44:41.625Z,31.85
2018-11-04T06:47:09.901Z,35.10
2018-11-04T06:49:38.102Z,32.90
2018-11-04T06:52:06.633Z,36.35
2018-11-04T06:54:34.926Z,32.03
2018-11-04T06:57:03.205Z,35.48
2018-11-04T06:59:31.511Z,34.92
2018-11-04T07:01:59.843Z,31.90
2018-11-04T07:04:29.310Z,34.15
2018-11-04T07:06:57.793Z,34.10
2018-11-04T07:09:26.060Z,33.38
2018-11-04T07:11:54.357Z,33.92
2018-11-04T07:14:22.626Z,34.85
2018-11-04T07:16:50.902Z,29.95
2018-11-04T07:19:19.158Z,29.42
2018-11-04T07:21:47.543Z,32.28
2018-11-04T07:24:15.849Z,32.75
2018-11-04T07:26:44.156Z,35.17
2018-11-04T07:29:12.445Z,32.67
2018-11-04T07:31:40.653Z,28.38
2018-11-04T07:34:08.981Z,32.67
2018-11-04T07:36:37.258Z,31.48
2018-11-04T07:39:08.434Z,38.23
2018-11-04T07:41:36.678Z,27.67
2018-11-04T07:44:05.100Z,32.93
2018-11-04T07:46:34.104Z,36.42
2018-11-04T07:49:02.374Z,36.00
2018-11-04T07:51:30.633Z,30.77
2018-11-04T07:53:58.944Z,31.70
2018-11-04T07:56:27.216Z,30.90
2018-11-04T07:58:55.456Z,27.67
2018-11-04T08:01:23.729Z,31.85
2018-11-04T08:03:52.338Z,30.65
2018-11-04T08:06:20.861Z,29.45
2018-11-04T08:08:49.066Z,34.00
2018-11-04T08:11:17.401Z,32.95
2018-11-04T08:13:45.690Z,29.55
2018-11-04T08:16:13.926Z,27.70
2018-11-04T08:18:42.311Z,31.85
2018-11-04T08:21:10.586Z,32.45
2018-11-04T08:23:45.409Z,32.17
2018-11-04T08:26:13.615Z,37.90
2018-11-04T08:28:41.870Z,31.35
2018-11-04T08:31:10.731Z,27.25
2018-11-04T08:33:39.036Z,26.70
2018-11-04T08:36:07.318Z,30.52
2018-11-04T08:38:35.637Z,28.52
2018-11-04T08:41:03.881Z,28.12
2018-11-04T08:43:32.713Z,28.80
2018-11-04T08:46:00.989Z,28.17
2018-11-04T08:48:29.246Z,26.35
2018-11-04T08:50:57.577Z,27.37
2018-11-04T08:53:26.049Z,25.80
2018-11-04T08:55:54.344Z,30.60
2018-11-04T08:58:22.710Z,24.50
2018-11-04T09:00:51.014Z,29.10
2018-11-04T09:03:19.270Z,24.02
2018-11-04T09:05:47.580Z,25.57
2018-11-04T09:08:15.871Z,24.80
2018-11-04T09:10:44.186Z,24.70
2018-11-04T09:13:12.467Z,25.65
2018-11-04T09:15:40.698Z,26.12
2018-11-04T09:18:09.034Z,25.88
2018-11-04T09:20:37.405Z,25.72
2018-11-04T09:23:05.855Z,24.25
2018-11-04T09:25:34.080Z,24.52
2018-11-04T09:28:02.388Z,25.20
2018-11-04T09:30:30.681Z,22.93
2018-11-04T09:32:58.895Z,25.80
2018-11-04T09:35:27.172Z,24.07
2018-11-04T09:37:55.401Z,25.95
2018-11-04T09:40:23.702Z,25.80
2018-11-04T09:45:30.105Z,25.35
2018-11-04T09:47:58.365Z,26.85
2018-11-04T09:50:26.693Z,23.52
2018-11-04T09:52:54.924Z,22.77
2018-11-04T09:55:23.213Z,23.18
2018-11-04T09:57:51.450Z,25.23
2018-11-04T10:00:19.742Z,24.20
2018-11-04T10:02:47.972Z,24.30
2018-11-04T10:05:16.206Z,23.52
2018-11-04T10:07:44.451Z,23.83
2018-11-04T10:10:13.985Z,23.45
2018-11-04T10:12:43.351Z,26.70
2018-11-04T10:15:11.623Z,24.35
2018-11-04T10:17:40.539Z,26.10
2018-11-04T10:20:10.371Z,25.10
2018-11-04T10:22:38.577Z,22.75
2018-11-04T10:25:07.649Z,24.75
2018-11-04T10:27:35.905Z,28.95
2018-11-04T10:30:04.579Z,28.07
2018-11-04T10:32:32.910Z,25.20
2018-11-04T10:35:01.134Z,25.45
2018-11-04T10:37:29.469Z,27.13
2018-11-04T10:39:57.739Z,26.05
2018-11-04T10:42:25.982Z,27.25
2018-11-04T10:44:54.254Z,24.77
2018-11-04T10:47:23.040Z,26.07
2018-11-04T10:49:51.381Z,30.70
2018-11-04T10:52:19.685Z,22.20
2018-11-04T10:54:47.978Z,30.08
2018-11-04T10:57:16.217Z,27.82
2018-11-04T10:59:44.433Z,31.77
2018-11-04T11:02:12.661Z,29.32
2018-11-04T11:04:40.983Z,25.62
2018-11-04T11:07:09.283Z,29.98
2018-11-04T11:09:37.576Z,30.00
2018-11-04T11:12:05.914Z,29.52
2018-11-04T11:14:34.244Z,28.10
2018-11-04T11:17:02.528Z,26.70
2018-11-04T11:19:30.730Z,28.35
2018-11-04T11:21:59.012Z,30.05
2018-11-04T11:24:27.303Z,29.87
2018-11-04T11:26:55.560Z,27.05
2018-11-04T11:29:23.867Z,29.98
2018-11-04T11:31:52.161Z,26.52
2018-11-04T11:34:20.423Z,28.02
2018-11-04T11:36:48.657Z,32.25
2018-11-04T11:39:16.926Z,28.07
2018-11-04T11:41:45.214Z,30.65
2018-11-04T11:44:13.433Z,27.10
2018-11-04T11:46:41.702Z,28.90
2018-11-04T11:49:09.930Z,30.00
2018-11-04T11:51:38.225Z,24.92
2018-11-04T11:54:06.970Z,31.50
2018-11-04T11:56:35.226Z,30.85
2018-11-04T11:59:03.457Z,27.20
2018-11-04T12:01:31.723Z,29.85
2018-11-04T12:04:00.015Z,30.27
2018-11-04T12:06:28.359Z,29.95
2018-11-04T12:08:56.558Z,28.80
2018-11-04T12:11:24.829Z,30.45
2018-11-04T12:13:53.110Z,27.85
2018-11-04T12:16:21.391Z,29.57
2018-11-04T12:18:49.707Z,27.30
2018-11-04T12:21:17.958Z,29.77
2018-11-04T12:23:46.367Z,29.25
2018-11-04T12:26:14.531Z,30.77
2018-11-04T12:28:42.924Z,31.45
2018-11-04T12:31:11.214Z,29.82
2018-11-04T12:33:39.521Z,29.48
2018-11-04T12:36:07.784Z,31.57
2018-11-04T12:38:36.074Z,27.50
2018-11-04T12:41:04.361Z,30.57
2018-11-04T12:43:32.665Z,29.20
2018-11-04T12:46:00.882Z,29.52
2018-11-04T12:48:29.099Z,32.75
2018-11-04T12:50:57.359Z,34.10
2018-11-04T12:53:25.657Z,31.73
2018-11-04T12:55:53.911Z,32.93
2018-11-04T12:58:22.203Z,34.05
2018-11-04T13:00:50.456Z,33.02
2018-11-04T13:03:18.821Z,28.62
2018-11-04T13:05:47.126Z,31.95
2018-11-04T13:08:15.521Z,32.28
2018-11-04T13:10:43.886Z,31.48
2018-11-04T13:13:12.205Z,34.20
2018-11-04T13:15:40.683Z,31.37
2018-11-04T13:18:08.910Z,40.25
2018-11-04T13:20:37.165Z,37.25
2018-11-04T13:23:05.700Z,35.85
2018-11-04T13:25:33.951Z,32.93
2018-11-04T13:28:02.263Z,33.78
2018-11-04T13:30:30.572Z,36.55
2018-11-04T13:32:58.890Z,34.03
2018-11-04T13:35:27.153Z,38.67
2018-11-04T13:37:55.396Z,36.08
2018-11-04T13:40:23.721Z,36.03
2018-11-04T13:42:53.148Z,33.80
2018-11-04T13:45:21.401Z,35.50
2018-11-04T13:47:49.630Z,35.33
2018-11-04T13:50:17.838Z,34.45
2018-11-04T13:52:46.075Z,32.75
2018-11-04T13:55:14.576Z,38.05
2018-11-04T13:57:42.851Z,36.38
2018-11-04T14:00:13.785Z,38.38
2018-11-04T14:02:42.731Z,37.17
2018-11-04T14:05:11.416Z,34.10
2018-11-04T14:07:40.553Z,37.85
2018-11-04T14:10:09.782Z,40.90
2018-11-04T14:12:38.054Z,37.93
2018-11-04T14:15:06.340Z,38.40
2018-11-04T14:17:34.765Z,37.60
2018-11-04T14:20:03.127Z,40.05
2018-11-04T14:22:31.456Z,35.08
2018-11-04T14:24:59.792Z,40.52
2018-11-04T14:27:28.166Z,37.28
2018-11-04T14:29:56.647Z,40.43
2018-11-04T14:32:24.917Z,37.80
2018-11-04T14:34:53.213Z,38.40
2018-11-04T14:37:21.473Z,39.70
2018-11-04T14:39:49.851Z,39.25
2018-11-04T14:42:18.068Z,38.25
2018-11-04T14:44:46.738Z,38.63
2018-11-04T14:47:15.009Z,42.67
2018-11-04T14:49:43.241Z,40.38
2018-11-04T14:52:11.561Z,45.92
2018-11-04T14:54:39.834Z,45.85
2018-11-04T14:57:12.118Z,41.20
2018-11-04T14:59:40.433Z,39.95
2018-11-04T15:02:08.882Z,34.83
2018-11-04T15:04:37.119Z,38.75
2018-11-04T15:07:05.929Z,41.58
2018-11-04T15:09:34.177Z,41.70
2018-11-04T15:12:02.415Z,38.50
2018-11-04T15:14:30.770Z,39.25
2018-11-04T15:16:59.087Z,41.02
2018-11-04T15:19:27.410Z,38.45
2018-11-04T15:21:55.674Z,40.48
2018-11-04T15:24:23.911Z,44.88
2018-11-04T15:26:52.613Z,42.03
2018-11-04T15:29:20.894Z,40.45
2018-11-04T15:31:49.134Z,38.55
2018-11-04T15:34:17.483Z,46.50
2018-11-04T15:36:45.620Z,42.03
2018-11-04T15:39:13.966Z,44.60
2018-11-04T15:41:42.322Z,42.75
2018-11-04T15:44:11.181Z,44.63
2018-11-04T15:46:39.413Z,48.05
2018-11-04T15:49:08.365Z,44.80
2018-11-04T15:51:36.609Z,42.10
2018-11-04T15:54:05.303Z,44.67
2018-11-04T15:56:33.570Z,43.00
2018-11-04T15:59:01.770Z,43.78
2018-11-04T16:01:30.054Z,44.13
2018-11-04T16:03:58.378Z,40.63
2018-11-04T16:06:26.619Z,44.98
2018-11-04T16:08:54.835Z,43.13
2018-11-04T16:11:23.070Z,39.15
2018-11-04T16:13:51.326Z,39.73
2018-11-04T16:16:19.663Z,43.25
2018-11-04T16:18:48.032Z,41.10
2018-11-04T16:21:16.201Z,43.95
2018-11-04T16:23:44.521Z,43.25
2018-11-04T16:26:12.730Z,41.10
2018-11-04T16:28:40.951Z,43.63
2018-11-04T16:31:09.396Z,41.05
2018-11-04T16:33:37.659Z,43.85
2018-11-04T16:36:05.907Z,42.25
2018-11-04T16:38:34.126Z,44.48
2018-11-04T16:41:02.435Z,42.83
2018-11-04T16:43:30.847Z,40.75
2018-11-04T16:45:59.028Z,39.55
2018-11-04T16:48:27.460Z,37.40
2018-11-04T16:50:55.764Z,43.48
2018-11-04T16:53:23.993Z,41.45
2018-11-04T16:55:52.250Z,36.98
2018-11-04T16:58:20.520Z,39.05
2018-11-04T17:00:48.754Z,44.90
2018-11-04T17:03:17.046Z,37.67
2018-11-04T17:05:45.411Z,38.92
2018-11-04T17:08:13.566Z,36.25
2018-11-04T17:10:41.782Z,34.30
2018-11-04T17:13:10.020Z,37.13
2018-11-04T17:15:38.278Z,37.45
2018-11-04T17:18:06.517Z,37.17
2018-11-04T17:20:34.788Z,37.60
2018-11-04T17:23:03.060Z,44.38
2018-11-04T17:25:31.403Z,41.28
2018-11-04T17:27:59.692Z,39.95
2018-11-04T17:30:27.931Z,40.73
2018-11-04T17:32:56.143Z,42.50
2018-11-04T17:35:24.425Z,39.20
2018-11-04T17:37:52.685Z,43.00
2018-11-04T17:40:20.957Z,40.40
2018-11-04T17:42:49.174Z,39.58
2018-11-04T17:45:17.653Z,36.42
2018-11-04T17:47:46.441Z,43.08
2018-11-04T17:50:16.290Z,38.25
2018-11-04T17:52:44.781Z,43.38
2018-11-04T17:55:13.024Z,40.48
2018-11-04T17:57:41.273Z,43.38
2018-11-04T18:00:10.515Z,43.87
2018-11-04T18:02:39.058Z,39.53
2018-11-04T18:05:08.088Z,47.25
2018-11-04T18:07:36.351Z,39.05
2018-11-04T18:10:04.662Z,45.12
2018-11-04T18:12:32.924Z,49.10
2018-11-04T18:15:01.142Z,46.55
2018-11-04T18:17:29.384Z,44.50
2018-11-04T18:19:57.590Z,50.50
2018-11-04T18:22:25.906Z,46.92
2018-11-04T18:24:54.341Z,47.17
2018-11-04T18:27:22.738Z,46.33
2018-11-04T18:29:51.099Z,49.13
2018-11-04T18:32:19.463Z,46.73
2018-11-04T18:34:47.699Z,49.83
2018-11-04T18:37:16.064Z,49.20
2018-11-04T18:39:44.345Z,49.65
2018-11-04T18:42:12.609Z,53.20
2018-11-04T18:44:40.970Z,52.35
2018-11-04T18:47:09.169Z,50.98
2018-11-04T18:49:37.461Z,51.60
2018-11-04T18:52:06.263Z,53.35
2018-11-04T18:54:34.488Z,53.17
2018-11-04T18:57:02.742Z,54.88
2018-11-04T18:59:31.086Z,57.95
2018-11-04T19:01:59.374Z,55.15
2018-11-04T19:04:27.633Z,62.58
2018-11-04T19:06:55.983Z,54.40
2018-11-04T19:09:24.239Z,55.08
2018-11-04T19:11:52.621Z,54.42
2018-11-04T19:14:20.730Z,50.90
2018-11-04T19:16:49.010Z,54.27
2018-11-04T19:19:17.298Z,54.95
2018-11-04T19:21:45.547Z,58.45
2018-11-04T19:24:13.786Z,57.00
2018-11-04T19:26:41.989Z,59.73
2018-11-04T19:29:10.293Z,58.83
2018-11-04T19:31:38.501Z,62.00
2018-11-04T19:34:06.809Z,61.35
2018-11-04T19:36:35.093Z,56.48
2018-11-04T19:39:03.904Z,56.53
2018-11-04T19:41:32.151Z,56.40
2018-11-04T19:44:00.525Z,59.63
2018-11-04T19:46:28.933Z,58.95
2018-11-04T19:48:57.153Z,61.85
2018-11-04T19:51:25.751Z,59.85
2018-11-04T19:53:54.081Z,56.05
2018-11-04T19:56:22.311Z,61.30
2018-11-04T19:58:50.533Z,56.30
2018-11-04T20:01:18.834Z,64.12
2018-11-04T20:03:47.114Z,58.38
2018-11-04T20:06:15.458Z,64.25
2018-11-04T20:09:20.458Z,59.27
2018-11-04T20:11:48.726Z,61.60
2018-11-04T20:14:18.792Z,61.65
2018-11-04T20:16:48.249Z,59.45
2018-11-04T20:19:22.130Z,66.85
2018-11-04T20:21:50.673Z,66.60
2018-11-04T20:24:24.401Z,59.35
2018-11-04T20:26:52.612Z,62.55
2018-11-04T20:29:20.892Z,58.40
2018-11-04T20:31:54.550Z,60.95
2018-11-04T20:34:23.175Z,59.33
2018-11-04T20:36:51.519Z,64.50
2018-11-04T20:39:24.969Z,60.20
2018-11-04T20:41:53.242Z,58.40
2018-11-04T20:44:21.566Z,61.40
2018-11-04T20:46:50.038Z,63.63
2018-11-04T20:49:23.750Z,63.58
2018-11-04T20:51:52.022Z,60.50
2018-11-04T20:54:20.395Z,65.17
2018-11-04T20:56:54.169Z,67.08
2018-11-04T20:59:22.487Z,66.25
2018-11-04T21:01:50.883Z,65.62
2018-11-04T21:04:19.082Z,61.48
2018-11-04T21:06:47.309Z,68.37
2018-11-04T21:09:15.585Z,61.55
2018-11-04T21:11:43.861Z,61.65
2018-11-04T21:14:12.114Z,64.85
2018-11-04T21:16:40.461Z,61.00
2018-11-04T21:19:08.668Z,63.40
2018-11-04T21:21:37.000Z,64.35
2018-11-04T21:24:05.393Z,70.17
2018-11-04T21:26:33.671Z,63.90
2018-11-04T21:29:02.185Z,66.12
2018-11-04T21:31:30.253Z,58.73
2018-11-04T21:33:58.751Z,60.23
2018-11-04T21:36:27.246Z,63.50
2018-11-04T21:38:55.806Z,57.13
2018-11-04T21:41:24.306Z,58.90
2018-11-04T21:43:52.725Z,59.50
2018-11-04T21:46:20.853Z,60.55
2018-11-04T21:48:49.102Z,58.15
2018-11-04T21:51:17.513Z,57.15
2018-11-04T21:53:45.626Z,61.95
2018-11-04T21:56:14.031Z,56.00
2018-11-04T21:58:42.178Z,55.15
2018-11-04T22:01:10.738Z,61.50
2018-11-04T22:03:39.115Z,56.02
2018-11-04T22:06:07.278Z,59.03
2018-11-04T22:08:35.516Z,58.30
2018-11-04T22:11:03.773Z,50.25
2018-11-04T22:13:32.076Z,57.67
2018-11-04T22:16:00.326Z,57.30
2018-11-04T22:18:28.549Z,62.30
2018-11-04T22:20:56.771Z,58.60
2018-11-04T22:23:25.147Z,57.65
2018-11-04T22:25:53.434Z,56.20
2018-11-04T22:28:21.766Z,53.60
2018-11-04T22:30:50.477Z,58.23
2018-11-04T22:33:18.837Z,52.33
2018-11-04T22:35:47.137Z,56.40
2018-11-04T22:38:15.490Z,54.90
2018-11-04T22:40:43.709Z,50.58
2018-11-04T22:43:11.950Z,58.58
2018-11-04T22:45:40.290Z,55.08
2018-11-04T22:48:08.614Z,51.90
2018-11-04T22:50:36.957Z,57.23
2018-11-04T22:53:05.191Z,57.43
2018-11-04T22:55:33.497Z,53.58
2018-11-04T22:58:05.123Z,59.80
2018-11-04T23:00:39.070Z,54.98
2018-11-04T23:03:07.413Z,53.70
2018-11-04T23:05:35.738Z,52.23
2018-11-04T23:08:04.078Z,53.87
2018-11-04T23:10:32.318Z,55.90
2018-11-04T23:13:00.999Z,53.95
2018-11-04T23:15:29.435Z,51.50
2018-11-04T23:17:57.884Z,56.42
2018-11-04T23:20:26.164Z,60.55
2018-11-04T23:22:54.686Z,50.00
2018-11-04T23:25:22.913Z,57.40
2018-11-04T23:27:51.245Z,56.33
2018-11-04T23:30:20.216Z,57.95
2018-11-04T23:32:48.601Z,57.27
2018-11-04T23:35:16.809Z,52.33
2018-11-04T23:37:45.445Z,49.58
2018-11-04T23:40:13.905Z,55.15
2018-11-04T23:42:42.201Z,51.10
2018-11-04T23:45:11.733Z,50.25
2018-11-04T23:47:40.007Z,52.15
2018-11-04T23:50:10.437Z,44.90
2018-11-04T23:52:38.769Z,52.67
2018-11-04T23:55:07.795Z,48.98
2018-11-04T23:57:36.061Z,51.60
